Time;durP1;ratioP1;P1;durP2;ratioP2;P2;SDS_P1;SDS_P2;PMS_P1;PMS_P2;Temp;Humidity;BMP_temperature;BMP_pressure;BME280_temperature;BME280_humidity;BME280_pressure;Samples;Min_cycle;Max_cycle;Signal;HPM_P1;HPM_P2
2023/04/01 00:00:56;;;;;;;9.10;4.88;;;10.00;99.90;;;;;;5107423;27;20718;-70
2023/04/01 00:03:25;;;;;;;10.18;5.22;;;9.90;99.90;;;;;;5106911;27;20079;-70
2023/04/01 00:05:51;;;;;;;12.77;5.68;;;9.90;99.90;;;;;;5109217;27;20370;-70
2023/04/01 00:08:16;;;;;;;10.00;5.50;;;9.80;99.90;;;;;;5108142;27;20098;-70
2023/04/01 00:10:42;;;;;;;10.73;5.15;;;9.80;99.90;;;;;;5105175;27;20462;-70
2023/04/01 00:13:08;;;;;;;13.77;5.47;;;9.80;99.90;;;;;;5107014;27;20671;-71
2023/04/01 00:15:34;;;;;;;10.13;5.00;;;9.90;99.90;;;;;;5105018;27;20035;-71
2023/04/01 00:18:00;;;;;;;10.35;5.55;;;9.80;99.90;;;;;;5104126;27;20057;-71
2023/04/01 00:20:26;;;;;;;14.52;5.78;;;9.90;99.90;;;;;;5104755;27;20050;-71
2023/04/01 00:22:52;;;;;;;11.80;5.68;;;9.80;99.90;;;;;;5100598;27;20036;-70
2023/04/01 00:25:18;;;;;;;11.93;5.50;;;9.90;99.90;;;;;;5106188;27;20046;-70
2023/04/01 00:27:44;;;;;;;13.50;5.82;;;9.90;99.90;;;;;;5105996;27;20050;-70
2023/04/01 00:30:10;;;;;;;12.80;5.47;;;9.80;99.90;;;;;;5107338;27;20039;-69
2023/04/01 00:32:36;;;;;;;11.77;5.75;;;9.90;99.90;;;;;;5112674;27;20546;-69
2023/04/01 00:35:03;;;;;;;11.98;5.10;;;9.90;99.90;;;;;;5108526;27;20035;-69
2023/04/01 00:37:29;;;;;;;18.08;6.65;;;9.90;99.90;;;;;;5104018;27;20055;-70
2023/04/01 00:39:54;;;;;;;10.18;5.75;;;9.90;99.90;;;;;;5110521;27;20478;-70
2023/04/01 00:42:20;;;;;;;11.38;5.47;;;9.90;99.90;;;;;;5108387;27;20043;-70
2023/04/01 00:44:50;;;;;;;8.10;4.72;;;9.90;99.90;;;;;;5103127;27;20038;-70
2023/04/01 00:47:17;;;;;;;10.65;4.97;;;9.80;99.90;;;;;;5102012;27;20046;-70
2023/04/01 00:49:46;;;;;;;9.30;4.78;;;9.80;99.90;;;;;;5108789;27;20047;-70
2023/04/01 00:52:16;;;;;;;16.15;5.53;;;9.90;99.90;;;;;;5105446;27;20443;-70
2023/04/01 00:54:46;;;;;;;13.55;5.45;;;9.90;99.90;;;;;;5104292;27;21409;-70
2023/04/01 00:57:24;;;;;;;12.10;5.40;;;9.90;99.90;;;;;;5104471;27;20044;-70
2023/04/01 00:59:53;;;;;;;18.08;6.05;;;9.90;99.90;;;;;;5102737;27;20076;-70
2023/04/01 01:02:19;;;;;;;13.25;5.00;;;9.80;99.90;;;;;;5105652;27;20031;-70
2023/04/01 01:04:45;;;;;;;10.32;4.72;;;9.90;99.90;;;;;;5090209;27;20084;-70
2023/04/01 01:07:31;;;;;;;8.68;5.00;;;9.80;99.90;;;;;;5103847;27;20042;-70
2023/04/01 01:10:06;;;;;;;10.77;5.65;;;9.90;99.90;;;;;;5101799;27;20485;-70
2023/04/01 01:12:43;;;;;;;10.57;5.35;;;9.90;99.90;;;;;;5100946;27;20224;-70
2023/04/01 01:15:25;;;;;;;10.68;5.57;;;9.80;99.90;;;;;;5105667;27;20110;-70
2023/04/01 01:18:02;;;;;;;13.23;5.57;;;9.80;99.90;;;;;;5120269;27;20100;-70
2023/04/01 01:20:34;;;;;;;10.27;5.90;;;9.90;99.90;;;;;;5105800;27;20389;-70
2023/04/01 01:23:23;;;;;;;13.30;5.90;;;9.80;99.90;;;;;;5105544;27;20365;-70
2023/04/01 01:25:59;;;;;;;12.45;5.72;;;9.90;99.90;;;;;;5107420;27;20038;-70
2023/04/01 01:28:40;;;;;;;15.82;6.95;;;9.90;99.90;;;;;;5102318;27;20043;-70
2023/04/01 01:31:32;;;;;;;11.15;5.22;;;9.90;99.90;;;;;;5108165;27;20043;-70
2023/04/01 01:34:22;;;;;;;14.65;5.70;;;9.90;99.90;;;;;;5093457;27;20041;-70
2023/04/01 01:36:53;;;;;;;11.40;5.25;;;9.80;99.90;;;;;;5107948;27;20043;-70
2023/04/01 01:39:20;;;;;;;11.85;5.63;;;9.80;99.90;;;;;;5106841;27;20035;-70
2023/04/01 01:41:49;;;;;;;10.50;5.63;;;9.90;99.90;;;;;;5107273;27;20046;-70
2023/04/01 01:44:15;;;;;;;16.40;6.32;;;9.90;99.90;;;;;;5105447;27;20133;-71
2023/04/01 01:46:43;;;;;;;14.80;6.00;;;9.80;99.90;;;;;;5104981;27;20077;-70
2023/04/01 01:49:11;;;;;;;10.65;5.30;;;9.90;99.90;;;;;;5105804;27;20049;-70
2023/04/01 01:51:37;;;;;;;13.43;5.47;;;9.80;99.90;;;;;;5106226;27;20046;-70
2023/04/01 01:54:02;;;;;;;13.43;6.30;;;9.90;99.90;;;;;;5104402;27;20065;-70
2023/04/01 01:56:30;;;;;;;21.85;7.00;;;9.80;99.90;;;;;;5101818;27;20047;-70
2023/04/01 01:59:03;;;;;;;12.38;5.80;;;9.80;99.90;;;;;;5097743;27;20047;-70
2023/04/01 02:01:32;;;;;;;22.48;7.35;;;9.90;99.90;;;;;;5104725;27;20039;-70
2023/04/01 02:03:59;;;;;;;11.75;5.50;;;9.80;99.90;;;;;;5100702;27;20092;-70
2023/04/01 02:06:28;;;;;;;18.88;6.25;;;9.90;99.90;;;;;;5102266;27;20038;-70
2023/04/01 02:09:01;;;;;;;15.90;6.10;;;9.80;99.90;;;;;;5106255;27;20039;-71
2023/04/01 02:11:31;;;;;;;13.35;5.97;;;9.80;99.90;;;;;;5107477;27;20047;-71
2023/04/01 02:14:17;;;;;;;12.65;5.53;;;9.90;99.90;;;;;;5105844;27;20036;-70
2023/04/01 02:17:01;;;;;;;17.98;6.45;;;9.90;99.90;;;;;;5101592;27;20042;-70
2023/04/01 02:19:37;;;;;;;10.57;5.55;;;9.90;99.90;;;;;;5098347;28;20039;-70
2023/04/01 02:22:07;;;;;;;10.90;5.95;;;9.80;99.90;;;;;;5099918;27;20083;-70
2023/04/01 02:24:35;;;;;;;11.18;6.30;;;9.80;99.90;;;;;;5103684;28;20035;-71
2023/04/01 02:27:01;;;;;;;17.25;6.97;;;9.80;99.90;;;;;;5103485;28;20457;-70
2023/04/01 02:29:27;;;;;;;21.17;7.03;;;9.90;99.90;;;;;;5103978;27;20122;-70
2023/04/01 02:31:53;;;;;;;25.65;7.93;;;10.00;99.90;;;;;;5105622;28;20385;-71
2023/04/01 02:34:21;;;;;;;19.73;6.95;;;9.80;99.90;;;;;;5103659;28;20044;-71
2023/04/01 02:36:48;;;;;;;15.55;6.28;;;9.90;99.90;;;;;;5103510;28;20062;-71
2023/04/01 02:39:14;;;;;;;27.98;7.80;;;9.90;99.90;;;;;;5097729;28;20043;-71
2023/04/01 02:41:45;;;;;;;13.82;6.53;;;9.80;99.90;;;;;;5085347;28;20383;-71
2023/04/01 02:44:12;;;;;;;25.17;7.20;;;9.80;99.90;;;;;;5094588;28;20074;-72
2023/04/01 02:46:38;;;;;;;13.45;6.50;;;9.80;99.90;;;;;;5100181;27;20058;-71
2023/04/01 02:49:04;;;;;;;13.98;6.32;;;9.90;99.90;;;;;;5104720;28;20174;-72
2023/04/01 02:51:30;;;;;;;17.30;6.70;;;9.90;99.90;;;;;;5102132;27;20050;-71
2023/04/01 02:53:55;;;;;;;12.95;6.57;;;9.80;99.90;;;;;;5101016;28;20039;-71
2023/04/01 02:56:21;;;;;;;22.50;7.38;;;9.90;99.90;;;;;;5104041;27;20114;-71
2023/04/01 02:58:47;;;;;;;12.00;6.25;;;9.80;99.90;;;;;;5104414;28;20513;-71
2023/04/01 03:01:13;;;;;;;17.90;6.93;;;9.80;99.90;;;;;;5107947;28;20549;-71
2023/04/01 03:03:39;;;;;;;11.10;6.30;;;9.90;99.90;;;;;;5101789;28;20044;-71
2023/04/01 03:06:09;;;;;;;17.60;7.38;;;9.80;99.90;;;;;;5105351;28;20046;-71
2023/04/01 03:08:35;;;;;;;12.18;5.80;;;9.90;99.90;;;;;;5098072;28;20039;-71
2023/04/01 03:11:00;;;;;;;13.10;6.30;;;9.90;99.90;;;;;;5100326;28;20041;-71
2023/04/01 03:13:26;;;;;;;11.68;6.50;;;9.90;99.90;;;;;;5105622;28;20062;-71
2023/04/01 03:15:53;;;;;;;12.25;6.50;;;9.90;99.90;;;;;;5107879;28;20090;-71
2023/04/01 03:18:19;;;;;;;11.70;6.63;;;9.80;99.90;;;;;;5102328;27;20104;-70
2023/04/01 03:20:45;;;;;;;13.60;6.75;;;9.90;99.90;;;;;;5097828;27;20039;-71
2023/04/01 03:23:11;;;;;;;14.20;6.65;;;9.80;99.90;;;;;;5099848;28;20121;-71
2023/04/01 03:25:36;;;;;;;12.73;6.43;;;9.90;99.90;;;;;;5102260;28;20134;-71
2023/04/01 03:28:03;;;;;;;12.10;6.60;;;9.80;99.90;;;;;;5105515;28;20035;-71
2023/04/01 03:30:31;;;;;;;16.45;6.68;;;9.80;99.90;;;;;;5103026;28;20031;-71
2023/04/01 03:32:59;;;;;;;12.90;6.60;;;9.70;99.90;;;;;;5106013;27;20081;-70
2023/04/01 03:35:25;;;;;;;13.60;6.93;;;9.90;99.90;;;;;;5103216;27;20036;-70
2023/04/01 03:37:52;;;;;;;12.63;6.13;;;9.80;99.90;;;;;;5107628;27;20039;-70
2023/04/01 03:40:17;;;;;;;13.68;6.72;;;9.90;99.90;;;;;;5102927;27;20039;-70
2023/04/01 03:42:43;;;;;;;11.88;6.25;;;9.90;99.90;;;;;;5108573;27;20034;-70
2023/04/01 03:45:09;;;;;;;15.07;6.47;;;9.80;99.90;;;;;;5104639;27;20043;-70
2023/04/01 03:47:35;;;;;;;13.60;6.38;;;9.90;99.90;;;;;;5106057;27;20039;-70
2023/04/01 03:50:01;;;;;;;15.80;7.15;;;9.80;99.90;;;;;;5106480;27;20039;-70
2023/04/01 03:52:26;;;;;;;10.30;6.28;;;9.90;99.90;;;;;;5107316;27;20038;-71
2023/04/01 03:54:52;;;;;;;11.88;6.15;;;9.90;99.90;;;;;;5098465;27;20493;-72
2023/04/01 03:57:17;;;;;;;13.05;6.35;;;9.90;99.90;;;;;;5101231;27;20100;-73
2023/04/01 03:59:43;;;;;;;13.38;6.47;;;9.90;99.90;;;;;;5100330;27;20504;-73
2023/04/01 04:02:08;;;;;;;12.57;6.65;;;9.90;99.90;;;;;;5100235;27;20034;-72
2023/04/01 04:04:34;;;;;;;16.17;7.25;;;10.00;99.90;;;;;;5107496;27;20043;-72
2023/04/01 04:06:59;;;;;;;12.55;6.60;;;10.00;99.90;;;;;;5108838;27;20042;-72
2023/04/01 04:09:25;;;;;;;12.10;6.85;;;10.00;99.90;;;;;;5104983;27;20402;-71
2023/04/01 04:11:51;;;;;;;16.00;6.88;;;9.90;99.90;;;;;;5104666;27;20035;-71
2023/04/01 04:14:16;;;;;;;10.15;5.78;;;9.90;99.90;;;;;;5103965;27;20066;-71
2023/04/01 04:16:42;;;;;;;14.90;6.25;;;9.90;99.90;;;;;;5103040;27;20408;-71
2023/04/01 04:19:08;;;;;;;11.95;6.50;;;9.80;99.90;;;;;;5102160;27;20045;-70
2023/04/01 04:21:33;;;;;;;12.68;6.35;;;9.80;99.90;;;;;;5099375;27;20043;-71
2023/04/01 04:24:00;;;;;;;11.35;6.00;;;9.90;99.90;;;;;;5107298;27;20375;-71
2023/04/01 04:26:26;;;;;;;15.80;6.35;;;10.00;99.90;;;;;;5104705;27;20175;-72
2023/04/01 04:28:53;;;;;;;12.40;5.97;;;10.00;99.90;;;;;;5108056;27;20118;-72
2023/04/01 04:31:23;;;;;;;14.13;6.38;;;9.90;99.90;;;;;;5101837;27;20043;-71
2023/04/01 04:33:49;;;;;;;13.35;6.38;;;9.90;99.90;;;;;;5105221;27;20418;-71
2023/04/01 04:36:15;;;;;;;10.48;5.75;;;10.00;99.90;;;;;;5102636;27;20240;-71
2023/04/01 04:38:40;;;;;;;12.30;5.80;;;9.90;99.90;;;;;;5106954;27;20390;-72
2023/04/01 04:41:12;;;;;;;12.38;6.30;;;9.90;99.90;;;;;;5107565;27;20046;-71
2023/04/01 04:43:38;;;;;;;13.25;6.60;;;10.00;99.90;;;;;;5097571;27;20046;-72
2023/04/01 04:46:06;;;;;;;10.65;5.75;;;10.00;99.90;;;;;;5101283;27;20043;-72
2023/04/01 04:48:31;;;;;;;11.90;5.85;;;9.90;99.90;;;;;;5119847;27;20027;-72
2023/04/01 04:50:57;;;;;;;12.52;5.97;;;9.80;99.90;;;;;;5104670;27;20035;-72
2023/04/01 04:53:23;;;;;;;8.93;5.00;;;9.90;99.90;;;;;;5105970;27;20050;-72
2023/04/01 04:55:49;;;;;;;11.25;5.38;;;10.00;99.90;;;;;;5102891;27;20077;-72
2023/04/01 04:58:16;;;;;;;10.05;5.28;;;9.90;99.90;;;;;;5101566;27;20070;-72
2023/04/01 05:00:42;;;;;;;9.98;5.13;;;9.90;99.90;;;;;;5102963;27;20031;-73
2023/04/01 05:03:08;;;;;;;14.52;5.88;;;9.90;99.90;;;;;;5105464;27;20043;-74
2023/04/01 05:05:34;;;;;;;13.52;5.60;;;9.90;99.90;;;;;;5106039;27;20048;-74
2023/04/01 05:07:59;;;;;;;11.02;5.30;;;9.90;99.90;;;;;;5083973;27;20050;-73
2023/04/01 05:10:25;;;;;;;10.00;5.32;;;9.90;99.90;;;;;;5101112;27;20043;-74
2023/04/01 05:12:51;;;;;;;8.73;4.30;;;9.90;99.90;;;;;;5102039;27;20095;-74
2023/04/01 05:15:16;;;;;;;8.35;3.95;;;9.90;99.90;;;;;;5106142;27;20051;-74
2023/04/01 05:17:42;;;;;;;7.75;3.67;;;9.90;99.90;;;;;;5103905;27;20051;-74
2023/04/01 05:20:08;;;;;;;13.70;5.00;;;9.90;99.90;;;;;;5102055;27;20031;-74
2023/04/01 05:22:33;;;;;;;7.95;4.03;;;9.80;99.90;;;;;;5100923;27;20043;-74
2023/04/01 05:24:59;;;;;;;9.07;4.55;;;9.90;99.90;;;;;;5102622;27;20935;-74
2023/04/01 05:27:25;;;;;;;11.40;4.70;;;9.90;99.90;;;;;;5101947;27;20529;-73
2023/04/01 05:29:50;;;;;;;11.20;5.38;;;10.00;99.90;;;;;;5103440;27;20031;-74
2023/04/01 05:32:16;;;;;;;11.15;5.80;;;9.80;99.90;;;;;;5095277;27;20507;-73
2023/04/01 05:34:41;;;;;;;11.35;5.85;;;9.80;99.90;;;;;;5087564;27;20035;-74
2023/04/01 05:37:07;;;;;;;15.32;6.32;;;9.80;99.90;;;;;;5104295;27;20043;-74
2023/04/01 05:39:40;;;;;;;17.63;6.47;;;9.80;99.90;;;;;;5101474;27;20040;-73
2023/04/01 05:42:06;;;;;;;14.25;6.57;;;10.00;99.90;;;;;;5099516;27;20387;-72
2023/04/01 05:44:32;;;;;;;14.95;7.05;;;10.00;99.90;;;;;;5100915;27;20312;-72
2023/04/01 05:46:57;;;;;;;17.63;7.65;;;9.90;99.90;;;;;;5106203;27;20500;-73
2023/04/01 05:49:23;;;;;;;17.00;7.80;;;10.00;99.90;;;;;;5101562;27;20039;-71
2023/04/01 05:51:48;;;;;;;20.33;8.95;;;9.90;99.90;;;;;;5103443;27;20058;-72
2023/04/01 05:54:14;;;;;;;17.55;8.05;;;10.00;99.90;;;;;;5105467;27;20043;-71
2023/04/01 05:56:39;;;;;;;18.92;8.38;;;10.10;99.90;;;;;;5098908;27;20043;-70
2023/04/01 05:59:05;;;;;;;17.52;8.05;;;10.10;99.90;;;;;;5105152;27;20069;-71
2023/04/01 06:01:31;;;;;;;25.40;8.93;;;10.00;99.90;;;;;;5105671;27;20084;-71
2023/04/01 06:03:56;;;;;;;34.03;9.82;;;10.00;99.90;;;;;;5102643;27;20038;-71
2023/04/01 06:06:27;;;;;;;19.88;8.88;;;10.00;99.90;;;;;;5106210;27;20489;-71
2023/04/01 06:08:56;;;;;;;21.30;7.97;;;10.00;99.90;;;;;;5103993;27;20053;-71
2023/04/01 06:11:41;;;;;;;16.10;7.13;;;10.10;99.90;;;;;;5089549;27;20035;-71
2023/04/01 06:14:24;;;;;;;17.80;7.60;;;10.10;99.90;;;;;;5103769;27;20043;-71
2023/04/01 06:17:00;;;;;;;22.02;7.82;;;10.10;99.90;;;;;;5105006;27;20192;-72
2023/04/01 06:19:51;;;;;;;23.00;7.93;;;10.10;99.90;;;;;;5098725;27;20039;-70
2023/04/01 06:22:44;;;;;;;17.92;6.88;;;10.10;99.90;;;;;;5100703;28;20039;-70
2023/04/01 06:25:50;;;;;;;17.05;6.82;;;10.10;99.90;;;;;;5104573;27;20319;-71
2023/04/01 06:28:37;;;;;;;17.95;7.10;;;10.20;99.90;;;;;;5106298;27;20130;-70
2023/04/01 06:31:17;;;;;;;17.42;6.57;;;10.10;99.90;;;;;;5107665;27;20477;-70
2023/04/01 06:34:06;;;;;;;15.43;6.85;;;10.20;99.90;;;;;;5102112;28;20039;-69
2023/04/01 06:36:53;;;;;;;18.95;6.85;;;10.20;99.90;;;;;;5109424;27;20485;-70
2023/04/01 06:39:34;;;;;;;15.30;6.57;;;10.30;99.90;;;;;;5110671;28;20091;-69
2023/04/01 06:42:32;;;;;;;14.82;5.95;;;10.30;99.90;;;;;;5102316;27;20396;-69
2023/04/01 06:45:22;;;;;;;15.00;6.40;;;10.40;99.90;;;;;;5111991;28;20131;-70
2023/04/01 06:48:08;;;;;;;18.70;6.72;;;10.40;99.90;;;;;;5103644;28;20042;-69
2023/04/01 06:50:55;;;;;;;15.15;6.32;;;10.40;99.90;;;;;;5107944;27;20035;-69
2023/04/01 06:53:42;;;;;;;15.80;6.00;;;10.30;99.90;;;;;;5104811;28;20516;-68
2023/04/01 06:56:14;;;;;;;12.68;5.70;;;10.50;99.90;;;;;;5097038;28;20032;-68
2023/04/01 06:58:43;;;;;;;;;;;10.40;99.90;;;;;;5122631;27;20039;-69
2023/04/01 07:01:15;;;;;;;10.50;4.88;;;10.50;99.90;;;;;;5104384;28;19960;-69
2023/04/01 07:03:45;;;;;;;10.23;4.57;;;10.70;99.90;;;;;;5102372;28;20465;-69
2023/04/01 07:06:21;;;;;;;11.05;4.80;;;10.80;99.90;;;;;;5103833;27;20046;-68
2023/04/01 07:08:48;;;;;;;11.95;5.00;;;10.80;99.90;;;;;;5101505;27;20078;-67
2023/04/01 07:11:26;;;;;;;10.02;4.30;;;10.80;99.90;;;;;;5105265;27;20043;-68
2023/04/01 07:13:58;;;;;;;10.13;4.22;;;11.00;99.90;;;;;;5110114;27;20039;-67
2023/04/01 07:16:40;;;;;;;10.90;4.78;;;10.90;99.90;;;;;;5108603;27;20035;-68
2023/04/01 07:19:12;;;;;;;;;;;11.00;99.90;;;;;;5107662;27;20039;-69
2023/04/01 07:21:51;;;;;;;9.52;4.35;;;11.00;99.90;;;;;;5111661;27;19919;-69
2023/04/01 07:24:31;;;;;;;12.38;5.28;;;11.00;99.90;;;;;;5109677;27;20087;-68
2023/04/01 07:26:58;;;;;;;13.30;5.60;;;11.00;99.90;;;;;;5109256;27;20035;-68
2023/04/01 07:29:26;;;;;;;13.52;5.95;;;11.20;99.90;;;;;;5110019;27;20077;-69
2023/04/01 07:32:09;;;;;;;12.88;6.50;;;11.20;99.90;;;;;;5091589;27;20444;-68
2023/04/01 07:34:41;;;;;;;15.88;7.60;;;11.20;99.90;;;;;;5100576;27;20072;-69
2023/04/01 07:37:31;;;;;;;17.65;8.65;;;11.20;99.90;;;;;;5096815;27;20043;-67
2023/04/01 07:40:04;;;;;;;15.90;7.65;;;11.20;99.90;;;;;;5113981;27;20107;-70
2023/04/01 07:43:07;;;;;;;14.15;7.18;;;11.30;99.90;;;;;;5111911;27;20030;-68
2023/04/01 07:46:00;;;;;;;12.02;6.38;;;11.40;99.90;;;;;;5114917;27;20505;-67
2023/04/01 07:48:58;;;;;;;9.93;5.38;;;11.40;99.90;;;;;;5112127;27;20043;-68
2023/04/01 07:51:43;;;;;;;9.13;5.70;;;11.30;99.90;;;;;;5107731;27;20031;-69
2023/04/01 07:54:19;;;;;;;8.20;5.03;;;11.30;99.90;;;;;;5107509;27;20043;-70
2023/04/01 07:56:58;;;;;;;9.25;5.15;;;11.30;99.90;;;;;;5109667;27;20097;-68
2023/04/01 07:59:51;;;;;;;8.10;4.70;;;11.40;99.90;;;;;;5131410;27;20125;-68
2023/04/01 08:02:47;;;;;;;9.07;4.38;;;11.40;99.90;;;;;;5108950;27;20046;-68
2023/04/01 08:05:27;;;;;;;9.65;4.70;;;11.50;99.90;;;;;;5113004;27;20043;-69
2023/04/01 08:08:13;;;;;;;6.72;3.78;;;11.50;99.90;;;;;;5099129;27;20035;-68
2023/04/01 08:10:49;;;;;;;7.53;3.90;;;11.60;99.90;;;;;;5114398;27;20375;-69
2023/04/01 08:13:34;;;;;;;6.90;4.05;;;11.70;99.90;;;;;;5103855;27;20424;-69
2023/04/01 08:16:10;;;;;;;6.35;3.50;;;11.70;99.90;;;;;;5109720;27;20482;-69
2023/04/01 08:19:24;;;;;;;6.65;3.47;;;11.80;99.90;;;;;;5101653;27;20464;-67
2023/04/01 08:21:52;;;;;;;7.03;3.30;;;11.70;99.90;;;;;;5104851;27;20379;-69
2023/04/01 08:24:42;;;;;;;6.07;3.75;;;11.80;99.90;;;;;;5109596;27;20035;-69
2023/04/01 08:27:43;;;;;;;5.53;3.15;;;11.90;99.90;;;;;;5110035;27;20112;-70
2023/04/01 08:30:22;;;;;;;4.30;2.75;;;11.80;99.90;;;;;;5105713;27;20061;-71
2023/04/01 08:33:24;;;;;;;5.70;3.28;;;11.80;99.90;;;;;;5115565;27;20039;-70
2023/04/01 08:36:01;;;;;;;6.43;3.60;;;11.80;99.90;;;;;;5009070;28;20081;-71
2023/04/01 08:38:56;;;;;;;6.03;3.78;;;11.70;99.90;;;;;;5090445;27;20075;-70
2023/04/01 08:41:41;;;;;;;6.63;3.97;;;11.70;99.90;;;;;;5072388;27;20047;-72
2023/04/01 08:44:42;;;;;;;6.57;4.35;;;11.60;99.90;;;;;;5103292;27;20477;-72
2023/04/01 08:47:32;;;;;;;7.57;4.45;;;11.60;99.90;;;;;;5097969;27;20398;-74
2023/04/01 08:50:24;;;;;;;8.60;4.85;;;11.60;99.90;;;;;;5105642;27;20134;-72
2023/04/01 08:53:08;;;;;;;9.65;5.38;;;11.70;99.90;;;;;;5108290;27;20042;-71
2023/04/01 08:55:48;;;;;;;10.93;6.15;;;11.60;99.90;;;;;;5110967;27;20045;-71
2023/04/01 08:58:32;;;;;;;9.82;6.25;;;11.60;99.90;;;;;;5102469;27;20134;-72
2023/04/01 09:01:21;;;;;;;10.38;6.38;;;11.60;99.90;;;;;;5108827;27;20116;-72
2023/04/01 09:04:22;;;;;;;14.20;6.50;;;11.60;99.90;;;;;;5107065;27;20095;-70
2023/04/01 09:07:00;;;;;;;10.57;6.07;;;11.60;99.90;;;;;;5103356;27;20386;-71
2023/04/01 09:09:28;;;;;;;8.77;5.50;;;11.50;99.90;;;;;;5100269;27;20043;-72
2023/04/01 09:12:18;;;;;;;6.85;4.35;;;11.60;99.90;;;;;;5100447;27;20039;-68
2023/04/01 09:15:29;;;;;;;5.43;3.28;;;11.50;99.90;;;;;;5105509;27;20079;-70
2023/04/01 09:18:17;;;;;;;5.72;3.13;;;11.60;99.90;;;;;;5110566;27;20036;-69
2023/04/01 09:20:58;;;;;;;6.53;3.10;;;11.60;99.90;;;;;;5101474;27;20048;-67
2023/04/01 09:23:54;;;;;;;5.10;3.10;;;11.60;99.90;;;;;;5100445;27;20374;-70
2023/04/01 09:27:02;;;;;;;4.35;2.65;;;11.90;99.90;;;;;;5108819;27;20042;-69
2023/04/01 09:29:42;;;;;;;4.53;2.55;;;12.00;99.90;;;;;;5104988;27;20075;-68
2023/04/01 09:32:26;;;;;;;5.53;2.00;;;12.00;99.90;;;;;;5110403;27;20039;-66
2023/04/01 09:35:19;;;;;;;3.90;2.13;;;11.90;99.90;;;;;;5111159;27;20035;-69
2023/04/01 09:37:52;;;;;;;3.35;2.05;;;11.90;99.90;;;;;;5109160;27;20046;-67
2023/04/01 09:40:23;;;;;;;3.58;2.47;;;11.80;99.90;;;;;;5106221;27;20039;-67
2023/04/01 09:43:28;;;;;;;3.47;2.03;;;11.90;99.90;;;;;;5107474;27;20046;-69
2023/04/01 09:46:10;;;;;;;4.32;2.33;;;12.00;99.90;;;;;;5111628;27;20062;-68
2023/04/01 09:49:15;;;;;;;4.95;2.85;;;12.20;99.90;;;;;;5106005;27;20111;-67
2023/04/01 09:52:09;;;;;;;5.05;3.13;;;12.30;99.90;;;;;;5113921;27;20142;-66
2023/04/01 09:54:49;;;;;;;5.35;3.20;;;12.30;99.90;;;;;;5102242;27;20042;-68
2023/04/01 09:57:48;;;;;;;5.65;3.25;;;12.30;99.90;;;;;;5107657;27;20100;-66
2023/04/01 10:00:33;;;;;;;7.95;5.00;;;12.20;99.90;;;;;;5112493;27;20070;-67
2023/04/01 10:03:13;;;;;;;8.95;5.10;;;12.00;99.90;;;;;;5109080;27;20035;-67
2023/04/01 10:05:57;;;;;;;9.55;5.28;;;12.00;99.90;;;;;;5110878;27;20038;-67
2023/04/01 10:08:51;;;;;;;11.15;5.75;;;12.00;99.90;;;;;;5105220;28;20047;-68
2023/04/01 10:11:36;;;;;;;11.60;5.40;;;12.10;99.90;;;;;;5104833;27;20050;-68
2023/04/01 10:14:33;;;;;;;9.68;6.00;;;12.20;99.90;;;;;;5110473;27;20054;-66
2023/04/01 10:17:36;;;;;;;9.95;6.22;;;12.30;99.90;;;;;;5112367;27;20095;-67
2023/04/01 10:20:48;;;;;;;11.88;6.95;;;12.20;99.90;;;;;;5113224;27;20516;-67
2023/04/01 10:23:43;;;;;;;10.93;6.53;;;12.20;99.90;;;;;;5087013;27;20090;-68
2023/04/01 10:26:25;;;;;;;12.02;6.80;;;12.20;99.90;;;;;;5109523;27;20077;-68
2023/04/01 10:29:11;;;;;;;10.65;6.60;;;12.20;99.90;;;;;;5103036;28;20043;-68
2023/04/01 10:32:11;;;;;;;11.18;6.72;;;12.30;99.90;;;;;;5092787;28;20039;-66
2023/04/01 10:34:41;;;;;;;11.90;7.30;;;12.30;99.90;;;;;;5111637;27;20123;-66
2023/04/01 10:37:46;;;;;;;11.15;7.30;;;12.40;99.90;;;;;;5099168;28;20035;-69
2023/04/01 10:40:44;;;;;;;12.20;7.25;;;12.40;99.90;;;;;;5105191;27;20047;-67
2023/04/01 10:43:40;;;;;;;11.32;7.35;;;12.40;99.90;;;;;;5101665;27;20100;-69
2023/04/01 10:46:24;;;;;;;12.00;7.70;;;12.40;99.90;;;;;;5110076;27;20071;-69
2023/04/01 10:49:28;;;;;;;12.05;7.55;;;12.40;99.90;;;;;;5109758;27;20382;-68
2023/04/01 10:52:17;;;;;;;13.35;8.30;;;12.40;99.90;;;;;;5113230;27;20050;-68
2023/04/01 10:54:47;;;;;;;12.77;8.23;;;12.40;99.90;;;;;;5116032;27;20050;-69
2023/04/01 10:57:45;;;;;;;13.27;8.40;;;12.40;99.90;;;;;;5119288;27;20053;-68
2023/04/01 11:00:35;;;;;;;13.52;7.35;;;12.50;99.90;;;;;;5116954;27;20054;-67
2023/04/01 11:03:23;;;;;;;11.02;6.47;;;12.40;99.90;;;;;;5106516;27;20117;-68
2023/04/01 11:06:07;;;;;;;12.60;7.35;;;12.40;99.90;;;;;;5118059;27;20401;-69
2023/04/01 11:08:47;;;;;;;14.63;8.70;;;12.50;99.90;;;;;;5110832;27;20067;-68
2023/04/01 11:11:34;;;;;;;14.07;8.48;;;12.50;99.90;;;;;;5122331;27;20047;-68
2023/04/01 11:14:35;;;;;;;11.85;7.10;;;12.60;99.90;;;;;;5116611;27;20035;-68
2023/04/01 11:17:37;;;;;;;13.65;8.57;;;12.70;99.90;;;;;;5118285;27;20071;-68
2023/04/01 11:20:33;;;;;;;14.95;9.25;;;12.70;99.90;;;;;;5090150;27;20058;-69
2023/04/01 11:23:10;;;;;;;15.05;9.25;;;12.70;99.90;;;;;;5113938;27;20452;-69
2023/04/01 11:25:57;;;;;;;11.52;6.53;;;12.70;99.90;;;;;;5104701;27;20047;-68
2023/04/01 11:28:44;;;;;;;8.32;5.13;;;12.60;99.90;;;;;;5107910;27;20412;-68
2023/04/01 11:31:29;;;;;;;7.22;4.15;;;12.50;99.90;;;;;;5111989;27;20490;-67
2023/04/01 11:33:55;;;;;;;6.85;3.45;;;12.40;99.90;;;;;;5114263;27;20035;-68
2023/04/01 11:36:30;;;;;;;7.20;4.32;;;12.20;99.90;;;;;;5115321;27;20394;-67
2023/04/01 11:39:36;;;;;;;7.10;4.95;;;12.10;99.90;;;;;;5128776;27;20039;-64
2023/04/01 11:42:35;;;;;;;6.32;4.07;;;12.00;99.90;;;;;;5064049;27;20049;-67
2023/04/01 11:45:27;;;;;;;5.68;3.65;;;11.80;99.90;;;;;;5115717;27;20043;-66
2023/04/01 11:47:59;;;;;;;7.00;3.53;;;11.60;99.90;;;;;;5106900;27;20039;-66
2023/04/01 11:51:06;;;;;;;6.50;3.78;;;11.40;99.90;;;;;;5101891;27;20042;-67
2023/04/01 11:53:53;;;;;;;7.68;4.35;;;11.20;99.90;;;;;;5113761;27;20401;-65
2023/04/01 11:56:51;;;;;;;9.65;5.57;;;11.00;99.90;;;;;;5108963;28;20055;-67
2023/04/01 11:59:42;;;;;;;6.65;4.30;;;10.90;99.90;;;;;;5104368;27;20032;-66
2023/04/01 12:02:39;;;;;;;9.30;6.00;;;10.90;99.90;;;;;;5116815;27;20031;-65
2023/04/01 12:05:07;;;;;;;7.72;4.78;;;10.80;99.90;;;;;;5116141;27;20066;-67
2023/04/01 12:07:41;;;;;;;6.03;3.80;;;10.80;99.90;;;;;;5115817;27;20047;-65
2023/04/01 12:10:38;;;;;;;9.02;5.47;;;10.80;99.90;;;;;;5105584;27;20080;-66
2023/04/01 12:13:27;;;;;;;8.60;5.90;;;10.60;99.90;;;;;;5104164;27;20509;-67
2023/04/01 12:16:31;;;;;;;7.72;4.60;;;10.50;99.90;;;;;;5111129;27;20130;-68
2023/04/01 12:19:28;;;;;;;7.72;4.88;;;10.50;99.90;;;;;;5113781;27;20049;-67
2023/04/01 12:22:21;;;;;;;8.45;5.63;;;10.50;99.90;;;;;;5108155;27;20061;-69
2023/04/01 12:25:02;;;;;;;5.00;3.10;;;10.40;99.90;;;;;;5107445;27;20521;-68
2023/04/01 12:27:51;;;;;;;7.38;5.03;;;10.40;99.90;;;;;;5122746;27;20042;-67
2023/04/01 12:30:52;;;;;;;9.27;4.93;;;10.40;99.90;;;;;;5109266;27;20050;-67
2023/04/01 12:33:29;;;;;;;7.57;5.10;;;10.30;99.90;;;;;;5114504;27;20127;-67
2023/04/01 12:36:38;;;;;;;6.03;3.58;;;10.40;99.90;;;;;;5115771;27;20035;-66
2023/04/01 12:39:27;;;;;;;9.52;4.75;;;10.50;99.90;;;;;;5117435;27;20050;-68
2023/04/01 12:42:32;;;;;;;9.82;3.50;;;10.30;99.90;;;;;;5095200;27;20046;-66
2023/04/01 12:45:27;;;;;;;4.90;3.08;;;10.40;99.90;;;;;;5113064;27;20050;-66
2023/04/01 12:48:26;;;;;;;6.88;4.53;;;10.50;99.90;;;;;;5112328;27;20035;-67
2023/04/01 12:51:29;;;;;;;5.55;3.22;;;10.30;99.90;;;;;;5112377;27;20039;-68
2023/04/01 12:54:19;;;;;;;6.63;4.32;;;10.30;99.90;;;;;;5095486;28;20458;-67
2023/04/01 12:56:58;;;;;;;4.72;3.33;;;10.30;99.90;;;;;;5097050;27;20043;-67
2023/04/01 12:59:54;;;;;;;5.47;3.50;;;10.50;99.90;;;;;;5103617;27;20063;-67
2023/04/01 13:02:24;;;;;;;5.57;3.70;;;10.50;99.90;;;;;;5109769;27;20485;-66
2023/04/01 13:05:12;;;;;;;6.85;4.47;;;10.40;99.90;;;;;;5113002;27;20043;-67
2023/04/01 13:08:07;;;;;;;4.85;3.13;;;10.40;99.90;;;;;;5114349;27;20126;-66
2023/04/01 13:10:51;;;;;;;5.20;3.72;;;10.40;99.90;;;;;;5109485;27;20046;-68
2023/04/01 13:13:45;;;;;;;6.30;3.72;;;10.40;99.90;;;;;;5105268;27;20590;-66
2023/04/01 13:16:20;;;;;;;6.72;4.28;;;10.40;99.90;;;;;;5100112;28;20047;-67
2023/04/01 13:19:07;;;;;;;7.22;4.50;;;10.40;99.90;;;;;;5099236;27;20035;-66
2023/04/01 13:21:32;;;;;;;8.15;4.78;;;10.40;99.90;;;;;;5111371;27;20409;-66
2023/04/01 13:24:30;;;;;;;6.10;3.83;;;10.40;99.90;;;;;;5112681;27;20126;-67
2023/04/01 13:27:32;;;;;;;7.63;5.03;;;10.50;99.90;;;;;;5081748;27;20043;-66
2023/04/01 13:30:28;;;;;;;6.30;4.07;;;10.40;99.90;;;;;;5110437;27;20114;-67
2023/04/01 13:33:15;;;;;;;8.18;5.35;;;10.30;99.90;;;;;;5104122;27;20402;-67
2023/04/01 13:35:57;;;;;;;9.20;4.78;;;10.10;99.90;;;;;;5104180;27;20381;-67
2023/04/01 13:38:40;;;;;;;8.07;5.25;;;10.20;99.90;;;;;;5129727;27;20042;-68
2023/04/01 13:41:26;;;;;;;4.07;2.78;;;10.20;99.90;;;;;;5099675;27;20039;-66